sensor_id;sensor_type;location;lat;lon;timestamp;P1;durP1;ratioP1;P2;durP2;ratioP2
8001;SDS011;4046;48.774;8.732;2022-07-23T00:00:17;13.50;;;12.50;;
8001;SDS011;4046;48.774;8.732;2022-07-23T00:02:43;12.57;;;11.67;;
8001;SDS011;4046;48.774;8.732;2022-07-23T00:05:09;13.83;;;12.73;;
8001;SDS011;4046;48.774;8.732;2022-07-23T00:07:35;12.37;;;11.40;;
8001;SDS011;4046;48.774;8.732;2022-07-23T00:10:01;12.63;;;11.63;;
8001;SDS011;4046;48.774;8.732;2022-07-23T00:12:27;13.10;;;12.00;;
8001;SDS011;4046;48.774;8.732;2022-07-23T00:14:53;12.73;;;11.73;;
8001;SDS011;4046;48.774;8.732;2022-07-23T00:17:18;12.73;;;11.63;;
8001;SDS011;4046;48.774;8.732;2022-07-23T00:19:44;12.80;;;11.70;;
8001;SDS011;4046;48.774;8.732;2022-07-23T00:22:10;12.60;;;11.50;;
8001;SDS011;4046;48.774;8.732;2022-07-23T00:24:36;13.40;;;12.20;;
8001;SDS011;4046;48.774;8.732;2022-07-23T00:27:01;13.30;;;12.20;;
8001;SDS011;4046;48.774;8.732;2022-07-23T00:29:27;11.33;;;10.43;;
8001;SDS011;4046;48.774;8.732;2022-07-23T00:31:53;12.27;;;11.37;;
8001;SDS011;4046;48.774;8.732;2022-07-23T00:34:18;12.23;;;11.33;;
8001;SDS011;4046;48.774;8.732;2022-07-23T00:36:44;12.70;;;11.70;;
8001;SDS011;4046;48.774;8.732;2022-07-23T00:39:10;13.57;;;12.57;;
8001;SDS011;4046;48.774;8.732;2022-07-23T00:41:35;12.70;;;11.70;;
8001;SDS011;4046;48.774;8.732;2022-07-23T00:44:14;11.70;;;10.80;;
8001;SDS011;4046;48.774;8.732;2022-07-23T00:46:48;11.53;;;10.63;;
8001;SDS011;4046;48.774;8.732;2022-07-23T00:49:18;10.30;;;9.50;;
8001;SDS011;4046;48.774;8.732;2022-07-23T00:51:48;11.23;;;10.43;;
8001;SDS011;4046;48.774;8.732;2022-07-23T00:54:15;11.23;;;10.17;;
8001;SDS011;4046;48.774;8.732;2022-07-23T00:56:45;11.50;;;10.60;;
8001;SDS011;4046;48.774;8.732;2022-07-23T00:59:12;11.43;;;10.53;;
8001;SDS011;4046;48.774;8.732;2022-07-23T01:01:39;11.23;;;10.23;;
8001;SDS011;4046;48.774;8.732;2022-07-23T01:04:05;10.73;;;9.80;;
8001;SDS011;4046;48.774;8.732;2022-07-23T01:06:36;11.53;;;10.53;;
8001;SDS011;4046;48.774;8.732;2022-07-23T01:09:04;10.93;;;10.13;;
8001;SDS011;4046;48.774;8.732;2022-07-23T01:11:31;12.80;;;11.70;;
8001;SDS011;4046;48.774;8.732;2022-07-23T01:13:59;10.83;;;9.93;;
8001;SDS011;4046;48.774;8.732;2022-07-23T01:16:24;11.47;;;10.57;;
8001;SDS011;4046;48.774;8.732;2022-07-23T01:18:50;12.00;;;11.00;;
8001;SDS011;4046;48.774;8.732;2022-07-23T01:21:16;12.20;;;11.30;;
8001;SDS011;4046;48.774;8.732;2022-07-23T01:23:43;13.13;;;12.03;;
8001;SDS011;4046;48.774;8.732;2022-07-23T01:26:09;10.90;;;10.00;;
8001;SDS011;4046;48.774;8.732;2022-07-23T01:28:35;10.50;;;9.60;;
8001;SDS011;4046;48.774;8.732;2022-07-23T01:31:00;10.30;;;9.50;;
8001;SDS011;4046;48.774;8.732;2022-07-23T01:33:26;11.40;;;10.50;;
8001;SDS011;4046;48.774;8.732;2022-07-23T01:35:52;9.77;;;8.97;;
8001;SDS011;4046;48.774;8.732;2022-07-23T01:38:18;10.30;;;9.43;;
8001;SDS011;4046;48.774;8.732;2022-07-23T01:40:43;10.93;;;9.93;;
8001;SDS011;4046;48.774;8.732;2022-07-23T01:43:09;10.80;;;10.00;;
8001;SDS011;4046;48.774;8.732;2022-07-23T01:45:35;12.27;;;11.27;;
8001;SDS011;4046;48.774;8.732;2022-07-23T01:48:00;12.83;;;11.77;;
8001;SDS011;4046;48.774;8.732;2022-07-23T01:50:26;12.40;;;11.50;;
8001;SDS011;4046;48.774;8.732;2022-07-23T01:52:52;12.00;;;11.10;;
8001;SDS011;4046;48.774;8.732;2022-07-23T01:55:17;12.43;;;11.37;;
8001;SDS011;4046;48.774;8.732;2022-07-23T01:57:43;12.07;;;11.07;;
8001;SDS011;4046;48.774;8.732;2022-07-23T02:00:09;12.30;;;11.30;;
8001;SDS011;4046;48.774;8.732;2022-07-23T02:02:35;12.70;;;11.73;;
8001;SDS011;4046;48.774;8.732;2022-07-23T02:05:01;12.20;;;11.30;;
8001;SDS011;4046;48.774;8.732;2022-07-23T02:07:26;13.13;;;12.13;;
8001;SDS011;4046;48.774;8.732;2022-07-23T02:09:52;12.87;;;11.77;;
8001;SDS011;4046;48.774;8.732;2022-07-23T02:12:18;12.03;;;11.03;;
8001;SDS011;4046;48.774;8.732;2022-07-23T02:14:43;12.10;;;11.00;;
8001;SDS011;4046;48.774;8.732;2022-07-23T02:17:09;11.80;;;10.90;;
8001;SDS011;4046;48.774;8.732;2022-07-23T02:19:35;11.40;;;10.50;;
8001;SDS011;4046;48.774;8.732;2022-07-23T02:22:01;10.83;;;9.93;;
8001;SDS011;4046;48.774;8.732;2022-07-23T02:24:26;9.80;;;9.10;;
8001;SDS011;4046;48.774;8.732;2022-07-23T02:26:52;9.53;;;8.67;;
8001;SDS011;4046;48.774;8.732;2022-07-23T02:29:18;10.20;;;9.30;;
8001;SDS011;4046;48.774;8.732;2022-07-23T02:31:43;10.33;;;9.50;;
8001;SDS011;4046;48.774;8.732;2022-07-23T02:34:09;11.87;;;10.90;;
8001;SDS011;4046;48.774;8.732;2022-07-23T02:36:37;11.80;;;10.90;;
8001;SDS011;4046;48.774;8.732;2022-07-23T02:39:03;12.33;;;11.23;;
8001;SDS011;4046;48.774;8.732;2022-07-23T02:41:29;11.47;;;10.57;;
8001;SDS011;4046;48.774;8.732;2022-07-23T02:43:55;10.73;;;9.83;;
8001;SDS011;4046;48.774;8.732;2022-07-23T02:46:21;11.30;;;10.30;;
8001;SDS011;4046;48.774;8.732;2022-07-23T02:48:46;10.40;;;9.60;;
8001;SDS011;4046;48.774;8.732;2022-07-23T02:51:12;10.70;;;9.87;;
8001;SDS011;4046;48.774;8.732;2022-07-23T02:53:38;11.27;;;10.13;;
8001;SDS011;4046;48.774;8.732;2022-07-23T02:56:03;10.13;;;9.27;;
8001;SDS011;4046;48.774;8.732;2022-07-23T02:58:29;10.50;;;9.60;;
8001;SDS011;4046;48.774;8.732;2022-07-23T03:00:55;11.27;;;10.40;;
8001;SDS011;4046;48.774;8.732;2022-07-23T03:03:21;10.23;;;9.23;;
8001;SDS011;4046;48.774;8.732;2022-07-23T03:05:47;10.47;;;9.50;;
8001;SDS011;4046;48.774;8.732;2022-07-23T03:08:13;9.63;;;8.93;;
8001;SDS011;4046;48.774;8.732;2022-07-23T03:10:38;9.20;;;8.43;;
8001;SDS011;4046;48.774;8.732;2022-07-23T03:13:04;9.63;;;8.93;;
8001;SDS011;4046;48.774;8.732;2022-07-23T03:15:30;9.80;;;9.00;;
8001;SDS011;4046;48.774;8.732;2022-07-23T03:17:55;11.57;;;10.57;;
8001;SDS011;4046;48.774;8.732;2022-07-23T03:20:21;10.50;;;9.50;;
8001;SDS011;4046;48.774;8.732;2022-07-23T03:22:46;10.67;;;9.87;;
8001;SDS011;4046;48.774;8.732;2022-07-23T03:25:12;10.13;;;9.33;;
8001;SDS011;4046;48.774;8.732;2022-07-23T03:27:38;9.23;;;8.60;;
8001;SDS011;4046;48.774;8.732;2022-07-23T03:30:04;8.80;;;8.20;;
8001;SDS011;4046;48.774;8.732;2022-07-23T03:32:30;9.27;;;8.47;;
8001;SDS011;4046;48.774;8.732;2022-07-23T03:34:56;9.30;;;8.40;;
8001;SDS011;4046;48.774;8.732;2022-07-23T03:37:22;8.33;;;7.73;;
8001;SDS011;4046;48.774;8.732;2022-07-23T03:39:48;8.60;;;7.80;;
8001;SDS011;4046;48.774;8.732;2022-07-23T03:42:14;9.33;;;8.40;;
8001;SDS011;4046;48.774;8.732;2022-07-23T03:44:40;9.07;;;8.20;;
8001;SDS011;4046;48.774;8.732;2022-07-23T03:47:05;9.57;;;8.80;;
8001;SDS011;4046;48.774;8.732;2022-07-23T03:49:31;9.47;;;8.67;;
8001;SDS011;4046;48.774;8.732;2022-07-23T03:51:58;8.90;;;8.20;;
8001;SDS011;4046;48.774;8.732;2022-07-23T03:54:24;8.60;;;7.90;;
8001;SDS011;4046;48.774;8.732;2022-07-23T03:56:49;8.90;;;8.20;;
8001;SDS011;4046;48.774;8.732;2022-07-23T03:59:15;9.40;;;8.70;;
8001;SDS011;4046;48.774;8.732;2022-07-23T04:01:41;8.67;;;7.97;;
8001;SDS011;4046;48.774;8.732;2022-07-23T04:04:07;9.10;;;8.40;;
8001;SDS011;4046;48.774;8.732;2022-07-23T04:06:34;10.10;;;9.10;;
8001;SDS011;4046;48.774;8.732;2022-07-23T04:09:00;9.03;;;8.33;;
8001;SDS011;4046;48.774;8.732;2022-07-23T04:11:26;9.43;;;8.63;;
8001;SDS011;4046;48.774;8.732;2022-07-23T04:13:51;9.40;;;8.60;;
8001;SDS011;4046;48.774;8.732;2022-07-23T04:16:17;9.13;;;8.43;;
8001;SDS011;4046;48.774;8.732;2022-07-23T04:18:43;9.23;;;8.47;;
8001;SDS011;4046;48.774;8.732;2022-07-23T04:21:08;9.47;;;8.57;;
8001;SDS011;4046;48.774;8.732;2022-07-23T04:23:34;8.80;;;8.10;;
8001;SDS011;4046;48.774;8.732;2022-07-23T04:26:00;9.23;;;8.40;;
8001;SDS011;4046;48.774;8.732;2022-07-23T04:28:26;8.17;;;7.50;;
8001;SDS011;4046;48.774;8.732;2022-07-23T04:30:51;8.10;;;7.40;;
8001;SDS011;4046;48.774;8.732;2022-07-23T04:33:17;8.70;;;7.90;;
8001;SDS011;4046;48.774;8.732;2022-07-23T04:35:43;8.27;;;7.77;;
8001;SDS011;4046;48.774;8.732;2022-07-23T04:38:09;9.13;;;8.43;;
8001;SDS011;4046;48.774;8.732;2022-07-23T04:40:35;9.00;;;8.20;;
8001;SDS011;4046;48.774;8.732;2022-07-23T04:43:00;8.90;;;8.20;;
8001;SDS011;4046;48.774;8.732;2022-07-23T04:45:26;7.97;;;7.37;;
8001;SDS011;4046;48.774;8.732;2022-07-23T04:47:52;8.60;;;7.87;;
8001;SDS011;4046;48.774;8.732;2022-07-23T04:50:17;8.17;;;7.57;;
8001;SDS011;4046;48.774;8.732;2022-07-23T04:52:47;8.80;;;8.10;;
8001;SDS011;4046;48.774;8.732;2022-07-23T04:55:13;7.87;;;7.30;;
8001;SDS011;4046;48.774;8.732;2022-07-23T04:57:39;8.60;;;8.00;;
8001;SDS011;4046;48.774;8.732;2022-07-23T05:00:05;8.50;;;7.90;;
8001;SDS011;4046;48.774;8.732;2022-07-23T05:02:31;8.27;;;7.67;;
8001;SDS011;4046;48.774;8.732;2022-07-23T05:04:56;8.33;;;7.73;;
8001;SDS011;4046;48.774;8.732;2022-07-23T05:07:22;8.57;;;7.87;;
8001;SDS011;4046;48.774;8.732;2022-07-23T05:09:48;8.87;;;8.17;;
8001;SDS011;4046;48.774;8.732;2022-07-23T05:12:14;8.57;;;7.97;;
8001;SDS011;4046;48.774;8.732;2022-07-23T05:14:39;7.67;;;6.83;;
8001;SDS011;4046;48.774;8.732;2022-07-23T05:17:05;7.67;;;7.03;;
8001;SDS011;4046;48.774;8.732;2022-07-23T05:19:33;8.17;;;7.57;;
8001;SDS011;4046;48.774;8.732;2022-07-23T05:21:59;8.10;;;7.50;;
8001;SDS011;4046;48.774;8.732;2022-07-23T05:24:25;8.20;;;7.50;;
8001;SDS011;4046;48.774;8.732;2022-07-23T05:26:53;8.53;;;7.73;;
8001;SDS011;4046;48.774;8.732;2022-07-23T05:29:19;7.83;;;7.23;;
8001;SDS011;4046;48.774;8.732;2022-07-23T05:31:44;7.73;;;7.13;;
8001;SDS011;4046;48.774;8.732;2022-07-23T05:34:10;7.63;;;7.03;;
8001;SDS011;4046;48.774;8.732;2022-07-23T05:36:36;8.27;;;7.50;;
8001;SDS011;4046;48.774;8.732;2022-07-23T05:39:02;7.83;;;7.23;;
8001;SDS011;4046;48.774;8.732;2022-07-23T05:41:28;8.77;;;8.07;;
8001;SDS011;4046;48.774;8.732;2022-07-23T05:43:54;8.10;;;7.47;;
8001;SDS011;4046;48.774;8.732;2022-07-23T05:46:20;8.07;;;7.47;;
8001;SDS011;4046;48.774;8.732;2022-07-23T05:48:45;8.83;;;7.67;;
8001;SDS011;4046;48.774;8.732;2022-07-23T05:51:19;8.57;;;7.97;;
8001;SDS011;4046;48.774;8.732;2022-07-23T05:53:46;8.57;;;7.87;;
8001;SDS011;4046;48.774;8.732;2022-07-23T05:56:12;8.17;;;7.57;;
8001;SDS011;4046;48.774;8.732;2022-07-23T05:58:38;15.43;;;7.50;;
8001;SDS011;4046;48.774;8.732;2022-07-23T06:01:04;8.83;;;8.13;;
8001;SDS011;4046;48.774;8.732;2022-07-23T06:03:30;7.80;;;7.17;;
8001;SDS011;4046;48.774;8.732;2022-07-23T06:05:55;8.30;;;7.70;;
8001;SDS011;4046;48.774;8.732;2022-07-23T06:08:21;7.90;;;7.33;;
8001;SDS011;4046;48.774;8.732;2022-07-23T06:10:47;8.37;;;7.70;;
8001;SDS011;4046;48.774;8.732;2022-07-23T06:13:17;8.30;;;7.77;;
8001;SDS011;4046;48.774;8.732;2022-07-23T06:15:43;8.57;;;7.97;;
8001;SDS011;4046;48.774;8.732;2022-07-23T06:18:09;8.63;;;7.93;;
8001;SDS011;4046;48.774;8.732;2022-07-23T06:20:35;8.70;;;8.10;;
8001;SDS011;4046;48.774;8.732;2022-07-23T06:23:01;8.20;;;7.60;;
8001;SDS011;4046;48.774;8.732;2022-07-23T06:25:26;8.90;;;7.97;;
8001;SDS011;4046;48.774;8.732;2022-07-23T06:27:52;8.43;;;7.73;;
8001;SDS011;4046;48.774;8.732;2022-07-23T06:30:18;8.63;;;7.83;;
8001;SDS011;4046;48.774;8.732;2022-07-23T06:32:44;7.70;;;7.10;;
8001;SDS011;4046;48.774;8.732;2022-07-23T06:35:11;9.03;;;8.30;;
8001;SDS011;4046;48.774;8.732;2022-07-23T06:37:36;8.83;;;8.13;;
8001;SDS011;4046;48.774;8.732;2022-07-23T06:40:03;9.20;;;8.10;;
8001;SDS011;4046;48.774;8.732;2022-07-23T06:42:29;9.63;;;8.60;;
8001;SDS011;4046;48.774;8.732;2022-07-23T06:44:54;9.70;;;8.80;;
8001;SDS011;4046;48.774;8.732;2022-07-23T06:47:20;9.70;;;8.90;;
8001;SDS011;4046;48.774;8.732;2022-07-23T06:49:46;9.40;;;8.70;;
8001;SDS011;4046;48.774;8.732;2022-07-23T06:52:12;9.83;;;9.03;;
8001;SDS011;4046;48.774;8.732;2022-07-23T06:54:37;9.87;;;9.00;;
8001;SDS011;4046;48.774;8.732;2022-07-23T06:57:03;11.30;;;10.20;;
8001;SDS011;4046;48.774;8.732;2022-07-23T06:59:29;9.33;;;8.63;;
8001;SDS011;4046;48.774;8.732;2022-07-23T07:01:54;10.40;;;9.40;;
8001;SDS011;4046;48.774;8.732;2022-07-23T07:04:20;10.70;;;9.70;;
8001;SDS011;4046;48.774;8.732;2022-07-23T07:06:46;10.43;;;9.63;;
8001;SDS011;4046;48.774;8.732;2022-07-23T07:09:11;10.90;;;10.00;;
8001;SDS011;4046;48.774;8.732;2022-07-23T07:11:37;10.30;;;9.47;;
8001;SDS011;4046;48.774;8.732;2022-07-23T07:14:03;10.67;;;9.87;;
8001;SDS011;4046;48.774;8.732;2022-07-23T07:16:29;9.97;;;9.20;;
8001;SDS011;4046;48.774;8.732;2022-07-23T07:18:55;9.87;;;9.07;;
8001;SDS011;4046;48.774;8.732;2022-07-23T07:21:20;10.00;;;9.10;;
8001;SDS011;4046;48.774;8.732;2022-07-23T07:23:46;10.50;;;9.60;;
8001;SDS011;4046;48.774;8.732;2022-07-23T07:26:12;11.37;;;10.20;;
8001;SDS011;4046;48.774;8.732;2022-07-23T07:28:38;10.30;;;9.50;;
8001;SDS011;4046;48.774;8.732;2022-07-23T07:31:03;9.87;;;9.07;;
8001;SDS011;4046;48.774;8.732;2022-07-23T07:33:29;9.37;;;8.67;;
8001;SDS011;4046;48.774;8.732;2022-07-23T07:35:55;10.43;;;9.43;;
8001;SDS011;4046;48.774;8.732;2022-07-23T07:38:21;10.30;;;9.50;;
8001;SDS011;4046;48.774;8.732;2022-07-23T07:40:47;9.90;;;9.10;;
8001;SDS011;4046;48.774;8.732;2022-07-23T07:43:12;9.00;;;8.30;;
8001;SDS011;4046;48.774;8.732;2022-07-23T07:45:38;10.70;;;9.90;;
8001;SDS011;4046;48.774;8.732;2022-07-23T07:48:04;9.40;;;8.70;;
8001;SDS011;4046;48.774;8.732;2022-07-23T07:50:30;10.43;;;9.33;;
8001;SDS011;4046;48.774;8.732;2022-07-23T07:52:56;10.60;;;9.70;;
8001;SDS011;4046;48.774;8.732;2022-07-23T07:55:21;9.57;;;8.87;;
8001;SDS011;4046;48.774;8.732;2022-07-23T07:57:47;10.23;;;9.33;;
8001;SDS011;4046;48.774;8.732;2022-07-23T08:00:13;9.53;;;8.73;;
8001;SDS011;4046;48.774;8.732;2022-07-23T08:02:46;9.60;;;8.80;;
8001;SDS011;4046;48.774;8.732;2022-07-23T08:05:13;10.27;;;9.27;;
8001;SDS011;4046;48.774;8.732;2022-07-23T08:07:39;9.37;;;8.53;;
8001;SDS011;4046;48.774;8.732;2022-07-23T08:10:06;9.90;;;9.10;;
8001;SDS011;4046;48.774;8.732;2022-07-23T08:12:46;8.83;;;8.13;;
8001;SDS011;4046;48.774;8.732;2022-07-23T08:15:15;11.67;;;9.97;;
8001;SDS011;4046;48.774;8.732;2022-07-23T08:17:43;9.30;;;8.50;;
8001;SDS011;4046;48.774;8.732;2022-07-23T08:20:26;9.23;;;8.43;;
8001;SDS011;4046;48.774;8.732;2022-07-23T08:25:26;9.23;;;8.53;;
8001;SDS011;4046;48.774;8.732;2022-07-23T08:28:06;9.77;;;8.97;;
8001;SDS011;4046;48.774;8.732;2022-07-23T08:30:36;8.70;;;8.00;;
8001;SDS011;4046;48.774;8.732;2022-07-23T08:33:03;10.17;;;9.27;;
8001;SDS011;4046;48.774;8.732;2022-07-23T08:35:40;9.80;;;8.80;;
8001;SDS011;4046;48.774;8.732;2022-07-23T08:38:08;10.13;;;7.97;;
8001;SDS011;4046;48.774;8.732;2022-07-23T08:40:45;9.87;;;8.97;;
8001;SDS011;4046;48.774;8.732;2022-07-23T08:43:17;9.80;;;9.00;;
8001;SDS011;4046;48.774;8.732;2022-07-23T08:45:48;11.17;;;10.30;;
8001;SDS011;4046;48.774;8.732;2022-07-23T08:50:44;10.10;;;9.40;;
8001;SDS011;4046;48.774;8.732;2022-07-23T08:53:14;10.30;;;9.50;;
8001;SDS011;4046;48.774;8.732;2022-07-23T08:55:43;9.23;;;8.60;;
8001;SDS011;4046;48.774;8.732;2022-07-23T08:58:19;10.37;;;9.57;;
8001;SDS011;4046;48.774;8.732;2022-07-23T09:00:45;10.30;;;9.47;;
8001;SDS011;4046;48.774;8.732;2022-07-23T09:03:15;9.83;;;9.13;;
8001;SDS011;4046;48.774;8.732;2022-07-23T09:05:45;9.80;;;9.07;;
8001;SDS011;4046;48.774;8.732;2022-07-23T09:08:13;8.17;;;7.57;;
8001;SDS011;4046;48.774;8.732;2022-07-23T09:11:02;9.00;;;8.20;;
8001;SDS011;4046;48.774;8.732;2022-07-23T09:13:34;8.33;;;7.73;;
8001;SDS011;4046;48.774;8.732;2022-07-23T09:23:47;7.57;;;6.97;;
8001;SDS011;4046;48.774;8.732;2022-07-23T09:29:08;7.50;;;6.80;;
8001;SDS011;4046;48.774;8.732;2022-07-23T09:34:12;7.60;;;7.10;;
8001;SDS011;4046;48.774;8.732;2022-07-23T09:36:44;8.10;;;7.50;;
8001;SDS011;4046;48.774;8.732;2022-07-23T09:39:10;7.70;;;7.10;;
8001;SDS011;4046;48.774;8.732;2022-07-23T09:41:38;8.10;;;7.60;;
8001;SDS011;4046;48.774;8.732;2022-07-23T09:44:09;8.20;;;7.63;;
8001;SDS011;4046;48.774;8.732;2022-07-23T09:46:38;8.20;;;7.63;;
8001;SDS011;4046;48.774;8.732;2022-07-23T09:49:13;7.50;;;7.10;;
8001;SDS011;4046;48.774;8.732;2022-07-23T09:54:46;7.40;;;6.90;;
8001;SDS011;4046;48.774;8.732;2022-07-23T09:59:43;7.47;;;6.97;;
8001;SDS011;4046;48.774;8.732;2022-07-23T10:02:11;7.07;;;6.67;;
8001;SDS011;4046;48.774;8.732;2022-07-23T10:04:38;6.83;;;6.40;;
8001;SDS011;4046;48.774;8.732;2022-07-23T10:07:05;6.83;;;6.43;;
8001;SDS011;4046;48.774;8.732;2022-07-23T10:09:37;6.83;;;6.43;;
8001;SDS011;4046;48.774;8.732;2022-07-23T10:12:05;6.87;;;6.37;;
8001;SDS011;4046;48.774;8.732;2022-07-23T10:14:47;7.20;;;6.70;;
8001;SDS011;4046;48.774;8.732;2022-07-23T10:17:13;7.20;;;6.80;;
8001;SDS011;4046;48.774;8.732;2022-07-23T10:19:40;7.50;;;7.00;;
8001;SDS011;4046;48.774;8.732;2022-07-23T10:22:08;7.00;;;6.50;;
8001;SDS011;4046;48.774;8.732;2022-07-23T10:24:50;7.10;;;6.70;;
8001;SDS011;4046;48.774;8.732;2022-07-23T10:27:54;7.40;;;6.90;;
8001;SDS011;4046;48.774;8.732;2022-07-23T10:41:37;6.77;;;6.37;;
8001;SDS011;4046;48.774;8.732;2022-07-23T10:46:53;7.40;;;7.00;;
8001;SDS011;4046;48.774;8.732;2022-07-23T10:49:30;7.40;;;6.90;;
8001;SDS011;4046;48.774;8.732;2022-07-23T10:54:54;7.23;;;6.70;;
8001;SDS011;4046;48.774;8.732;2022-07-23T10:57:26;7.33;;;6.80;;
8001;SDS011;4046;48.774;8.732;2022-07-23T11:02:35;7.20;;;6.70;;
8001;SDS011;4046;48.774;8.732;2022-07-23T11:05:04;7.73;;;7.13;;
8001;SDS011;4046;48.774;8.732;2022-07-23T11:07:30;7.07;;;6.60;;
8001;SDS011;4046;48.774;8.732;2022-07-23T11:09:56;8.37;;;7.30;;
8001;SDS011;4046;48.774;8.732;2022-07-23T11:17:39;8.13;;;7.53;;
8001;SDS011;4046;48.774;8.732;2022-07-23T11:20:27;7.47;;;7.07;;
8001;SDS011;4046;48.774;8.732;2022-07-23T11:22:57;7.30;;;6.80;;
8001;SDS011;4046;48.774;8.732;2022-07-23T11:27:54;7.10;;;6.60;;
8001;SDS011;4046;48.774;8.732;2022-07-23T11:35:34;6.83;;;6.43;;
8001;SDS011;4046;48.774;8.732;2022-07-23T11:38:08;7.83;;;7.33;;
8001;SDS011;4046;48.774;8.732;2022-07-23T11:40:43;8.00;;;7.40;;
8001;SDS011;4046;48.774;8.732;2022-07-23T11:43:11;7.33;;;6.67;;
8001;SDS011;4046;48.774;8.732;2022-07-23T11:45:39;6.50;;;6.00;;
8001;SDS011;4046;48.774;8.732;2022-07-23T11:48:05;7.50;;;6.93;;
8001;SDS011;4046;48.774;8.732;2022-07-23T11:50:33;7.53;;;7.03;;
8001;SDS011;4046;48.774;8.732;2022-07-23T11:52:59;7.73;;;7.17;;
8001;SDS011;4046;48.774;8.732;2022-07-23T11:55:25;8.07;;;7.53;;
8001;SDS011;4046;48.774;8.732;2022-07-23T11:57:53;6.90;;;6.40;;
8001;SDS011;4046;48.774;8.732;2022-07-23T12:00:21;7.13;;;6.73;;
8001;SDS011;4046;48.774;8.732;2022-07-23T12:02:51;6.70;;;6.30;;
8001;SDS011;4046;48.774;8.732;2022-07-23T12:05:20;7.67;;;7.17;;
8001;SDS011;4046;48.774;8.732;2022-07-23T12:07:51;7.90;;;7.40;;
8001;SDS011;4046;48.774;8.732;2022-07-23T12:13:02;7.33;;;6.93;;
8001;SDS011;4046;48.774;8.732;2022-07-23T12:15:31;7.67;;;7.07;;
8001;SDS011;4046;48.774;8.732;2022-07-23T12:18:00;7.87;;;7.37;;
8001;SDS011;4046;48.774;8.732;2022-07-23T12:20:30;27.57;;;9.73;;
8001;SDS011;4046;48.774;8.732;2022-07-23T12:22:59;103.63;;;21.50;;
8001;SDS011;4046;48.774;8.732;2022-07-23T12:25:27;8.87;;;8.17;;
8001;SDS011;4046;48.774;8.732;2022-07-23T12:28:36;73.23;;;16.80;;
8001;SDS011;4046;48.774;8.732;2022-07-23T12:30:51;12.33;;;8.93;;
8001;SDS011;4046;48.774;8.732;2022-07-23T12:33:36;7.63;;;7.13;;
8001;SDS011;4046;48.774;8.732;2022-07-23T12:36:05;7.50;;;7.07;;
8001;SDS011;4046;48.774;8.732;2022-07-23T12:38:36;12.43;;;8.30;;
8001;SDS011;4046;48.774;8.732;2022-07-23T12:41:16;7.93;;;7.20;;
8001;SDS011;4046;48.774;8.732;2022-07-23T12:43:43;7.40;;;6.80;;
8001;SDS011;4046;48.774;8.732;2022-07-23T12:51:26;10.93;;;8.27;;
8001;SDS011;4046;48.774;8.732;2022-07-23T12:53:55;7.93;;;7.27;;
8001;SDS011;4046;48.774;8.732;2022-07-23T12:56:27;7.70;;;7.20;;
8001;SDS011;4046;48.774;8.732;2022-07-23T12:58:58;7.90;;;7.20;;
8001;SDS011;4046;48.774;8.732;2022-07-23T13:01:33;7.10;;;6.70;;
8001;SDS011;4046;48.774;8.732;2022-07-23T13:04:02;7.57;;;7.10;;
8001;SDS011;4046;48.774;8.732;2022-07-23T13:06:39;8.00;;;7.30;;
8001;SDS011;4046;48.774;8.732;2022-07-23T13:09:16;7.70;;;7.20;;
8001;SDS011;4046;48.774;8.732;2022-07-23T13:11:43;7.80;;;7.10;;
8001;SDS011;4046;48.774;8.732;2022-07-23T13:14:10;7.90;;;7.43;;
8001;SDS011;4046;48.774;8.732;2022-07-23T13:16:37;8.03;;;7.43;;
8001;SDS011;4046;48.774;8.732;2022-07-23T13:19:03;8.10;;;7.60;;
8001;SDS011;4046;48.774;8.732;2022-07-23T13:21:29;7.73;;;7.23;;
8001;SDS011;4046;48.774;8.732;2022-07-23T13:23:55;8.27;;;7.57;;
8001;SDS011;4046;48.774;8.732;2022-07-23T13:26:22;7.50;;;6.83;;
8001;SDS011;4046;48.774;8.732;2022-07-23T13:28:48;7.53;;;6.90;;
8001;SDS011;4046;48.774;8.732;2022-07-23T13:31:15;6.70;;;6.30;;
8001;SDS011;4046;48.774;8.732;2022-07-23T13:33:41;7.03;;;6.43;;
8001;SDS011;4046;48.774;8.732;2022-07-23T13:36:10;7.87;;;7.17;;
8001;SDS011;4046;48.774;8.732;2022-07-23T13:38:36;7.17;;;6.73;;
8001;SDS011;4046;48.774;8.732;2022-07-23T13:41:02;6.97;;;6.57;;
8001;SDS011;4046;48.774;8.732;2022-07-23T13:43:28;7.10;;;6.60;;
8001;SDS011;4046;48.774;8.732;2022-07-23T13:45:54;7.33;;;6.83;;
8001;SDS011;4046;48.774;8.732;2022-07-23T13:48:20;7.10;;;6.70;;
8001;SDS011;4046;48.774;8.732;2022-07-23T13:50:47;7.67;;;7.10;;
8001;SDS011;4046;48.774;8.732;2022-07-23T13:53:15;7.37;;;6.97;;
8001;SDS011;4046;48.774;8.732;2022-07-23T13:55:45;7.43;;;6.93;;
8001;SDS011;4046;48.774;8.732;2022-07-23T13:58:12;7.67;;;7.20;;
8001;SDS011;4046;48.774;8.732;2022-07-23T14:00:41;7.20;;;6.70;;
8001;SDS011;4046;48.774;8.732;2022-07-23T14:03:08;7.10;;;6.70;;
8001;SDS011;4046;48.774;8.732;2022-07-23T14:05:34;8.23;;;7.53;;
8001;SDS011;4046;48.774;8.732;2022-07-23T14:08:00;8.43;;;7.73;;
8001;SDS011;4046;48.774;8.732;2022-07-23T14:10:26;7.67;;;7.17;;
8001;SDS011;4046;48.774;8.732;2022-07-23T14:12:52;8.03;;;7.40;;
8001;SDS011;4046;48.774;8.732;2022-07-23T14:15:21;8.50;;;7.90;;
8001;SDS011;4046;48.774;8.732;2022-07-23T14:17:47;8.60;;;8.00;;
8001;SDS011;4046;48.774;8.732;2022-07-23T14:20:13;8.00;;;7.50;;
8001;SDS011;4046;48.774;8.732;2022-07-23T14:22:39;7.67;;;7.17;;
8001;SDS011;4046;48.774;8.732;2022-07-23T14:25:06;8.03;;;7.40;;
8001;SDS011;4046;48.774;8.732;2022-07-23T14:27:33;8.17;;;7.47;;
8001;SDS011;4046;48.774;8.732;2022-07-23T14:29:59;7.90;;;7.40;;
8001;SDS011;4046;48.774;8.732;2022-07-23T14:32:25;8.07;;;7.50;;
8001;SDS011;4046;48.774;8.732;2022-07-23T14:34:51;8.00;;;7.43;;
8001;SDS011;4046;48.774;8.732;2022-07-23T14:37:17;8.10;;;7.60;;
8001;SDS011;4046;48.774;8.732;2022-07-23T14:39:43;8.20;;;7.60;;
8001;SDS011;4046;48.774;8.732;2022-07-23T14:42:09;8.33;;;7.73;;
8001;SDS011;4046;48.774;8.732;2022-07-23T14:44:35;7.97;;;7.37;;
8001;SDS011;4046;48.774;8.732;2022-07-23T14:47:02;8.80;;;8.20;;
8001;SDS011;4046;48.774;8.732;2022-07-23T14:49:29;9.07;;;8.47;;
8001;SDS011;4046;48.774;8.732;2022-07-23T14:51:56;8.30;;;7.60;;
8001;SDS011;4046;48.774;8.732;2022-07-23T14:54:23;8.40;;;7.80;;
8001;SDS011;4046;48.774;8.732;2022-07-23T14:56:51;8.93;;;8.13;;
8001;SDS011;4046;48.774;8.732;2022-07-23T14:59:17;7.93;;;7.33;;
8001;SDS011;4046;48.774;8.732;2022-07-23T15:01:42;8.40;;;7.80;;
8001;SDS011;4046;48.774;8.732;2022-07-23T15:04:08;8.63;;;8.03;;
8001;SDS011;4046;48.774;8.732;2022-07-23T15:06:34;8.90;;;8.20;;
8001;SDS011;4046;48.774;8.732;2022-07-23T15:08:59;8.77;;;8.17;;
8001;SDS011;4046;48.774;8.732;2022-07-23T15:11:27;7.97;;;7.37;;
8001;SDS011;4046;48.774;8.732;2022-07-23T15:13:54;8.33;;;7.77;;
8001;SDS011;4046;48.774;8.732;2022-07-23T15:16:20;8.43;;;7.90;;
8001;SDS011;4046;48.774;8.732;2022-07-23T15:18:46;8.03;;;7.43;;
8001;SDS011;4046;48.774;8.732;2022-07-23T15:21:12;9.23;;;8.10;;
8001;SDS011;4046;48.774;8.732;2022-07-23T15:23:37;8.70;;;8.07;;
8001;SDS011;4046;48.774;8.732;2022-07-23T15:26:05;8.57;;;7.80;;
8001;SDS011;4046;48.774;8.732;2022-07-23T15:28:32;8.80;;;8.20;;
8001;SDS011;4046;48.774;8.732;2022-07-23T15:30:58;8.73;;;8.03;;
8001;SDS011;4046;48.774;8.732;2022-07-23T15:33:24;8.00;;;7.40;;
8001;SDS011;4046;48.774;8.732;2022-07-23T15:35:50;9.03;;;8.33;;
8001;SDS011;4046;48.774;8.732;2022-07-23T15:38:17;9.17;;;8.47;;
8001;SDS011;4046;48.774;8.732;2022-07-23T15:40:43;9.17;;;8.33;;
8001;SDS011;4046;48.774;8.732;2022-07-23T15:43:09;9.13;;;8.47;;
8001;SDS011;4046;48.774;8.732;2022-07-23T15:45:35;9.10;;;8.50;;
8001;SDS011;4046;48.774;8.732;2022-07-23T15:48:01;11.33;;;8.60;;
8001;SDS011;4046;48.774;8.732;2022-07-23T15:50:27;9.00;;;8.30;;
8001;SDS011;4046;48.774;8.732;2022-07-23T15:52:53;9.53;;;8.80;;
8001;SDS011;4046;48.774;8.732;2022-07-23T15:55:18;9.13;;;8.43;;
8001;SDS011;4046;48.774;8.732;2022-07-23T15:57:44;8.50;;;7.80;;
8001;SDS011;4046;48.774;8.732;2022-07-23T16:00:10;9.30;;;8.50;;
8001;SDS011;4046;48.774;8.732;2022-07-23T16:02:36;8.93;;;8.33;;
8001;SDS011;4046;48.774;8.732;2022-07-23T16:05:02;8.70;;;8.00;;
8001;SDS011;4046;48.774;8.732;2022-07-23T16:07:28;9.13;;;8.43;;
8001;SDS011;4046;48.774;8.732;2022-07-23T16:09:54;9.57;;;8.87;;
8001;SDS011;4046;48.774;8.732;2022-07-23T16:12:19;8.83;;;8.17;;